Terminal Aerodrome Forecast
Issued by NWS Green Bay, WI

Home | Current Version | Previous Version | Text Only | Print | Product List | Glossary Off
Versions: 1 2 3 4 5 6 7 8 9 10 11 12 13 14 15 16

000
FTUS43 KGRB 241504 AAC
TAFGRB
TAF AMD
KGRB 241504Z 2415/2512 16008KT P6SM BKN005 OVC025
     FM241700 23010KT P6SM SCT015 BKN025
     FM241800 24010G20KT P6SM SCT030
     FM242100 26012G20KT P6SM SCT100
     FM250200 28008KT P6SM FEW250=

USA.gov is the U.S. government's official web portal to all federal, state and local government web resources and services.